This is the latest recevied weather packets stored in our database for station/object LU1HKO-13. If no packets are shown the sender has not sent any weather packets the latest 10 day(s).
| Time | Temp. | Humidity | Pressure | Rain* | Wind** | Luminosity | Snow |
|---|---|---|---|---|---|---|---|
| 1777413034 | 18.33° C | 49% | 1014.9 hPa | 0 mm | - | - | - |
| 1777411272 | 20.56° C | 43% | 1015.1 hPa | 0 mm | - | - | - |
| 1777410665 | 21.11° C | 42% | 1014.9 hPa | 0 mm | - | - | - |
| 1777407020 | - | - | 1015.8 hPa | 0 mm | - | - | - |
| 1777406494 | - | - | 1015.7 hPa | 0 mm | - | - | - |
| 1777402222 | 23.89° C | 35% | 1016.9 hPa | 0 mm | - | - | - |
| 1777397423 | 23.89° C | 33% | 1018.5 hPa | 0 mm | - | - | - |
| 1777395661 | 22.78° C | 32% | 1019.2 hPa | 0 mm | - | - | - |
| 1777394446 | 23.33° C | 33% | 1019.6 hPa | 0 mm | - | - | - |
| 1777393232 | 21.67° C | 38% | 1019.9 hPa | 0 mm | - | - | - |
| 1777389668 | 20.56° C | 44% | 1020.9 hPa | 0 mm | - | - | - |
| 1777389040 | - | - | 1021.3 hPa | 0 mm | - | - | - |
| 1777387825 | 17.78° C | 51% | 1021.3 hPa | 0 mm | - | - | - |
| 1777384261 | 15.56° C | 60% | 1022 hPa | 0 mm | - | - | - |
| 1777383633 | 15° C | 62% | 1021.7 hPa | 0 mm | - | - | - |
| 1777383026 | 13.89° C | 63% | 1021.7 hPa | 0 mm | - | - | - |
| 1777381265 | 12.78° C | 62% | 1021.9 hPa | 0 mm | - | - | - |
| 1777379442 | - | - | 1022.5 hPa | 0 mm | - | - | - |
| 1777378855 | - | - | 1022.5 hPa | 0 mm | - | - | - |
| 1777377072 | 10.56° C | 74% | 1022.2 hPa | 0 mm | - | - | - |
| 1777373428 | 8.89° C | 76% | 1021.2 hPa | 0 mm | - | - | - |
| 1777369237 | 8.89° C | 77% | 1019.6 hPa | 0 mm | - | - | - |
| 1777368022 | 8.89° C | 76% | 1019.6 hPa | 0 mm | - | - | - |
| 1777364438 | 8.89° C | 76% | 1019.5 hPa | 0 mm | - | - | - |
| 1777362069 | 8.89° C | 75% | 1019.5 hPa | 0 mm | - | - | - |
* Rain latest hour (hover to see other rain measurements)
** Current wind speed in m/s (hover to see current wind gust speed)